Time;durP1;ratioP1;P1;durP2;ratioP2;P2;SDS_P1;SDS_P2;PMS_P1;PMS_P2;Temp;Humidity;BMP_temperature;BMP_pressure;BME280_temperature;BME280_humidity;BME280_pressure;Samples;Min_cycle;Max_cycle;Signal;HPM_P1;HPM_P2
2023/08/21 00:00:44;;;;;;;0.00;0.00;;;15.40;99.90;;;;;;5064038;28;20408;-66
2023/08/21 00:03:10;;;;;;;0.70;0.00;;;15.40;99.90;;;;;;5061736;28;20052;-66
2023/08/21 00:05:36;;;;;;;0.20;0.00;;;15.40;99.90;;;;;;5068736;28;20495;-66
2023/08/21 00:08:02;;;;;;;0.05;0.00;;;15.40;99.90;;;;;;5067811;28;20410;-66
2023/08/21 00:10:29;;;;;;;0.10;0.00;;;15.40;99.90;;;;;;5066269;28;20041;-66
2023/08/21 00:12:55;;;;;;;0.00;0.00;;;15.40;99.90;;;;;;5065686;28;20060;-66
2023/08/21 00:15:21;;;;;;;0.00;0.00;;;15.40;99.90;;;;;;5067854;28;20394;-66
2023/08/21 00:17:46;;;;;;;0.47;0.10;;;15.30;99.90;;;;;;5064947;28;20032;-66
2023/08/21 00:20:12;;;;;;;3.15;0.05;;;15.30;99.90;;;;;;5066098;28;20056;-66
2023/08/21 00:22:38;;;;;;;1.10;0.00;;;15.20;99.90;;;;;;5067527;28;20527;-66
2023/08/21 00:25:04;;;;;;;1.02;0.10;;;15.20;99.90;;;;;;5066088;28;20075;-66
2023/08/21 00:27:30;;;;;;;1.55;0.20;;;15.10;99.90;;;;;;5068183;28;20450;-66
2023/08/21 00:29:57;;;;;;;0.57;0.10;;;15.10;99.90;;;;;;5066261;28;20154;-66
2023/08/21 00:32:23;;;;;;;1.45;0.10;;;15.10;99.90;;;;;;5065652;28;20086;-66
2023/08/21 00:34:48;;;;;;;0.20;0.10;;;15.00;99.90;;;;;;5067762;28;20124;-66
2023/08/21 00:37:14;;;;;;;3.30;0.20;;;15.00;99.90;;;;;;5068440;28;20104;-66
2023/08/21 00:39:40;;;;;;;0.00;0.00;;;15.00;99.90;;;;;;5064186;28;20194;-66
2023/08/21 00:42:07;;;;;;;3.83;0.00;;;14.90;99.90;;;;;;5066118;28;20040;-66
2023/08/21 00:44:32;;;;;;;1.45;0.05;;;14.90;99.90;;;;;;5063689;28;20052;-65
2023/08/21 00:46:58;;;;;;;0.10;0.00;;;14.90;99.90;;;;;;5067662;28;20040;-66
2023/08/21 00:49:24;;;;;;;0.57;0.00;;;14.80;99.90;;;;;;5066949;28;20116;-66
2023/08/21 00:51:51;;;;;;;0.00;0.00;;;14.80;99.90;;;;;;5063015;28;20040;-66
2023/08/21 00:54:17;;;;;;;0.00;0.00;;;14.80;99.90;;;;;;5067037;28;20377;-65
2023/08/21 00:56:46;;;;;;;1.65;0.10;;;14.70;99.90;;;;;;5068625;28;20434;-66
2023/08/21 00:59:12;;;;;;;0.10;0.00;;;14.70;99.90;;;;;;5064960;28;20468;-65
2023/08/21 01:01:38;;;;;;;0.10;0.05;;;14.70;99.90;;;;;;5063682;28;20056;-66
2023/08/21 01:04:04;;;;;;;0.00;0.00;;;14.70;99.90;;;;;;5065978;28;20055;-66
2023/08/21 01:06:30;;;;;;;0.55;0.10;;;14.60;99.90;;;;;;5066276;28;20476;-66
2023/08/21 01:09:17;;;;;;;0.00;0.00;;;14.70;99.90;;;;;;5065823;28;20392;-66
2023/08/21 01:12:09;;;;;;;0.00;0.00;;;14.60;99.90;;;;;;5065483;28;20419;-65
2023/08/21 01:14:58;;;;;;;0.08;0.00;;;14.60;99.90;;;;;;5056116;28;20064;-66
2023/08/21 01:17:24;;;;;;;1.17;0.25;;;14.60;99.90;;;;;;5065586;28;20052;-66
2023/08/21 01:19:50;;;;;;;0.22;0.00;;;14.50;99.90;;;;;;5068542;28;20094;-66
2023/08/21 01:22:16;;;;;;;0.10;0.05;;;14.50;99.90;;;;;;5067076;28;20044;-66
2023/08/21 01:24:42;;;;;;;0.03;0.00;;;14.50;99.90;;;;;;5068881;28;20036;-66
2023/08/21 01:27:13;;;;;;;0.10;0.00;;;14.50;99.90;;;;;;5050150;28;20043;-66
2023/08/21 01:29:39;;;;;;;0.00;0.00;;;14.50;99.90;;;;;;5065260;28;20037;-66
2023/08/21 01:32:11;;;;;;;0.00;0.00;;;14.50;99.90;;;;;;5065116;28;20048;-66
2023/08/21 01:34:39;;;;;;;0.30;0.10;;;14.50;99.90;;;;;;5059904;28;20037;-66
2023/08/21 01:37:05;;;;;;;0.25;0.10;;;14.40;99.90;;;;;;5068504;28;20066;-66
2023/08/21 01:39:31;;;;;;;0.00;0.00;;;14.40;99.90;;;;;;5071789;28;20066;-66
2023/08/21 01:42:00;;;;;;;0.25;0.08;;;14.40;99.90;;;;;;5067894;28;20032;-66
2023/08/21 01:44:26;;;;;;;0.10;0.00;;;14.40;99.90;;;;;;5071870;28;20029;-66
2023/08/21 01:46:53;;;;;;;2.50;0.50;;;14.40;99.90;;;;;;5066769;28;20047;-66
2023/08/21 01:49:19;;;;;;;0.95;0.10;;;14.30;99.90;;;;;;5069600;28;20475;-66
2023/08/21 01:51:45;;;;;;;0.25;0.10;;;14.30;99.90;;;;;;5070189;28;20068;-66
2023/08/21 01:54:11;;;;;;;0.10;0.00;;;14.30;99.90;;;;;;5071306;28;20111;-66
2023/08/21 01:56:37;;;;;;;1.27;0.10;;;14.30;99.90;;;;;;5069747;28;20025;-66
2023/08/21 01:59:04;;;;;;;0.00;0.00;;;14.30;99.90;;;;;;5071073;28;20373;-66
2023/08/21 02:01:30;;;;;;;0.00;0.00;;;14.30;99.90;;;;;;5067243;28;20044;-66
2023/08/21 02:03:56;;;;;;;0.32;0.10;;;14.30;99.90;;;;;;5070568;28;20051;-66
2023/08/21 02:06:22;;;;;;;0.10;0.00;;;14.20;99.90;;;;;;5066204;28;20054;-66
2023/08/21 02:08:49;;;;;;;0.00;0.00;;;14.20;99.90;;;;;;5071182;28;20059;-66
2023/08/21 02:11:15;;;;;;;0.00;0.00;;;14.20;99.90;;;;;;5070252;28;20058;-66
2023/08/21 02:13:40;;;;;;;0.55;0.10;;;14.20;99.90;;;;;;5068739;28;20040;-66
2023/08/21 02:16:06;;;;;;;0.00;0.00;;;14.20;99.90;;;;;;5065888;28;20040;-65
2023/08/21 02:18:32;;;;;;;0.30;0.10;;;14.10;99.90;;;;;;5070828;28;20036;-66
2023/08/21 02:20:57;;;;;;;1.08;0.10;;;14.10;99.90;;;;;;5068213;28;20340;-66
2023/08/21 02:23:24;;;;;;;0.17;0.00;;;14.10;99.90;;;;;;5066072;28;20562;-66
2023/08/21 02:25:50;;;;;;;0.28;0.08;;;14.10;99.90;;;;;;5068486;28;20044;-66
2023/08/21 02:28:15;;;;;;;0.00;0.00;;;14.10;99.90;;;;;;5067423;28;20045;-66
2023/08/21 02:30:42;;;;;;;0.00;0.00;;;14.10;99.90;;;;;;5066451;28;20475;-66
2023/08/21 02:33:07;;;;;;;0.25;0.10;;;14.10;99.90;;;;;;5066316;28;20048;-66
2023/08/21 02:35:33;;;;;;;0.20;0.00;;;14.00;99.90;;;;;;5067219;28;20028;-66
2023/08/21 02:37:59;;;;;;;0.20;0.10;;;14.10;99.90;;;;;;5066290;28;20131;-66
2023/08/21 02:40:25;;;;;;;0.15;0.10;;;14.10;99.90;;;;;;5069540;28;20047;-66
2023/08/21 02:42:50;;;;;;;0.05;0.00;;;14.10;99.90;;;;;;5067074;28;20048;-67
2023/08/21 02:45:16;;;;;;;0.20;0.05;;;14.00;99.90;;;;;;5070292;28;20043;-66
2023/08/21 02:47:42;;;;;;;0.10;0.08;;;14.00;99.90;;;;;;5065451;28;20045;-65
2023/08/21 02:50:09;;;;;;;0.75;0.10;;;14.00;99.90;;;;;;5049523;28;20558;-66
2023/08/21 02:52:36;;;;;;;0.20;0.10;;;14.00;99.90;;;;;;5068447;28;20105;-66
2023/08/21 02:55:03;;;;;;;0.57;0.10;;;14.00;99.90;;;;;;5067693;28;20048;-66
2023/08/21 02:57:29;;;;;;;0.38;0.10;;;13.90;99.90;;;;;;5050194;28;20048;-66
2023/08/21 02:59:55;;;;;;;0.43;0.05;;;13.90;99.90;;;;;;5069381;28;20037;-66
2023/08/21 03:02:21;;;;;;;1.85;0.45;;;13.90;99.90;;;;;;5065703;28;20072;-66
2023/08/21 03:04:47;;;;;;;0.30;0.00;;;13.90;99.90;;;;;;5064805;28;20046;-67
2023/08/21 03:07:13;;;;;;;0.10;0.00;;;13.90;99.90;;;;;;5063090;28;20098;-66
2023/08/21 03:09:40;;;;;;;0.10;0.00;;;13.90;99.90;;;;;;5069562;28;20040;-66
2023/08/21 03:12:06;;;;;;;0.00;0.00;;;13.80;99.90;;;;;;5069342;28;20036;-66
2023/08/21 03:14:32;;;;;;;0.15;0.08;;;13.80;99.90;;;;;;5069348;28;20498;-66
2023/08/21 03:16:57;;;;;;;0.05;0.00;;;13.80;99.90;;;;;;5063805;28;20040;-66
2023/08/21 03:19:23;;;;;;;0.38;0.10;;;13.70;99.90;;;;;;5067338;28;20036;-66
2023/08/21 03:21:49;;;;;;;0.00;0.00;;;13.70;99.90;;;;;;5064651;28;20104;-66
2023/08/21 03:24:14;;;;;;;0.00;0.00;;;13.60;99.90;;;;;;5068625;28;20133;-66
2023/08/21 03:26:40;;;;;;;0.05;0.05;;;13.60;99.90;;;;;;5069129;28;20032;-66
2023/08/21 03:29:06;;;;;;;0.00;0.00;;;13.60;99.90;;;;;;5068823;28;20048;-66
2023/08/21 03:31:31;;;;;;;0.28;0.10;;;13.50;99.90;;;;;;5066325;28;20032;-66
2023/08/21 03:33:57;;;;;;;0.30;0.10;;;13.40;99.90;;;;;;5068566;28;20135;-66
2023/08/21 03:36:30;;;;;;;0.43;0.20;;;13.40;99.90;;;;;;5065764;28;20040;-66
2023/08/21 03:38:57;;;;;;;0.00;0.00;;;13.40;99.90;;;;;;5094347;28;20468;-66
2023/08/21 03:41:23;;;;;;;1.48;0.00;;;13.40;99.90;;;;;;5066218;28;20162;-65
2023/08/21 03:43:49;;;;;;;0.38;0.20;;;13.30;99.90;;;;;;5067894;28;20119;-66
2023/08/21 03:46:14;;;;;;;0.20;0.00;;;13.30;99.90;;;;;;5067307;28;20036;-66
2023/08/21 03:48:40;;;;;;;0.73;0.20;;;13.30;99.90;;;;;;5063740;28;20037;-66
2023/08/21 03:51:06;;;;;;;0.20;0.05;;;13.30;99.90;;;;;;5067850;28;20052;-66
2023/08/21 03:53:31;;;;;;;0.20;0.00;;;13.30;99.90;;;;;;5064614;28;20047;-65
2023/08/21 03:55:57;;;;;;;0.10;0.00;;;13.30;99.90;;;;;;5068374;28;20123;-66
2023/08/21 03:58:25;;;;;;;0.08;0.00;;;13.30;99.90;;;;;;5067533;28;20044;-66
2023/08/21 04:00:51;;;;;;;0.00;0.00;;;13.30;99.90;;;;;;5063019;28;20061;-66
2023/08/21 04:03:17;;;;;;;0.10;0.00;;;13.30;99.90;;;;;;5064590;28;20048;-65
2023/08/21 04:05:43;;;;;;;0.10;0.03;;;13.30;99.90;;;;;;5065184;28;20494;-65
2023/08/21 04:08:08;;;;;;;1.27;0.00;;;13.30;99.90;;;;;;5067358;28;20045;-66
2023/08/21 04:10:34;;;;;;;0.00;0.00;;;13.30;99.90;;;;;;5068957;28;20573;-66
2023/08/21 04:13:00;;;;;;;0.30;0.10;;;13.20;99.90;;;;;;5067393;28;20383;-66
2023/08/21 04:15:26;;;;;;;0.08;0.00;;;13.20;99.90;;;;;;5064433;28;20469;-66
2023/08/21 04:17:52;;;;;;;0.10;0.00;;;13.20;99.90;;;;;;5065752;28;20040;-66
2023/08/21 04:20:20;;;;;;;0.08;0.00;;;13.20;99.90;;;;;;5065883;28;20373;-66
2023/08/21 04:22:46;;;;;;;0.98;0.10;;;13.20;99.90;;;;;;5066249;28;20071;-66
2023/08/21 04:25:12;;;;;;;0.05;0.00;;;13.20;99.90;;;;;;5066256;28;20037;-66
2023/08/21 04:27:38;;;;;;;0.05;0.00;;;13.20;99.90;;;;;;5065631;28;20046;-66
2023/08/21 04:30:04;;;;;;;0.08;0.08;;;13.10;99.90;;;;;;5066617;28;20105;-66
2023/08/21 04:32:31;;;;;;;0.75;0.10;;;13.20;99.90;;;;;;5066445;28;20044;-66
2023/08/21 04:34:56;;;;;;;0.00;0.00;;;13.10;99.90;;;;;;5066081;28;20143;-66
2023/08/21 04:37:23;;;;;;;0.22;0.10;;;13.10;99.90;;;;;;5062664;28;20509;-66
2023/08/21 04:39:53;;;;;;;0.10;0.00;;;13.10;99.90;;;;;;5063057;28;20120;-65
2023/08/21 04:42:19;;;;;;;0.05;0.05;;;13.10;99.90;;;;;;5060809;28;20122;-66
2023/08/21 04:44:45;;;;;;;0.30;0.10;;;13.10;99.90;;;;;;5066001;28;20040;-65
2023/08/21 04:47:21;;;;;;;0.00;0.00;;;13.10;99.90;;;;;;5063683;28;20302;-66
2023/08/21 04:49:48;;;;;;;0.10;0.00;;;13.10;99.90;;;;;;5062325;28;20384;-66
2023/08/21 04:52:14;;;;;;;0.00;0.00;;;13.10;99.90;;;;;;5063930;28;20044;-65
2023/08/21 04:54:40;;;;;;;0.00;0.00;;;13.10;99.90;;;;;;5068106;28;20499;-66
2023/08/21 04:57:05;;;;;;;0.20;0.00;;;13.10;99.90;;;;;;5065219;28;20033;-66
2023/08/21 04:59:31;;;;;;;0.00;0.00;;;13.10;99.90;;;;;;5068567;28;20469;-66
2023/08/21 05:01:57;;;;;;;0.25;0.08;;;13.10;99.90;;;;;;5070456;28;20044;-66
2023/08/21 05:04:23;;;;;;;0.00;0.00;;;13.10;99.90;;;;;;5071582;28;20037;-66
2023/08/21 05:06:48;;;;;;;0.10;0.00;;;13.20;99.90;;;;;;5068668;28;20048;-66
2023/08/21 05:09:14;;;;;;;0.03;0.03;;;13.20;99.90;;;;;;5071206;28;20170;-66
2023/08/21 05:11:40;;;;;;;0.00;0.00;;;13.20;99.90;;;;;;5068789;28;20033;-66
2023/08/21 05:14:06;;;;;;;0.10;0.03;;;13.30;99.90;;;;;;5071383;28;20036;-66
2023/08/21 05:16:32;;;;;;;0.30;0.20;;;13.30;99.90;;;;;;5071548;28;20101;-66
2023/08/21 05:18:58;;;;;;;0.10;0.10;;;13.30;99.90;;;;;;5067775;28;20056;-66
2023/08/21 05:21:23;;;;;;;0.10;0.00;;;13.40;99.90;;;;;;5070017;28;20041;-66
2023/08/21 05:23:49;;;;;;;0.20;0.10;;;13.40;99.90;;;;;;5066185;28;20163;-66
2023/08/21 05:26:15;;;;;;;0.00;0.00;;;13.50;99.90;;;;;;5070458;28;20044;-66
2023/08/21 05:28:40;;;;;;;0.00;0.00;;;13.50;99.90;;;;;;5069554;28;20033;-66
2023/08/21 05:31:06;;;;;;;0.43;0.10;;;13.60;99.90;;;;;;5064551;28;20033;-66
2023/08/21 05:33:32;;;;;;;0.22;0.10;;;13.70;99.90;;;;;;5067429;28;20036;-65
2023/08/21 05:35:57;;;;;;;0.05;0.00;;;13.80;99.90;;;;;;5068595;28;20039;-66
2023/08/21 05:38:23;;;;;;;0.30;0.15;;;13.80;99.90;;;;;;5067224;28;20036;-66
2023/08/21 05:40:49;;;;;;;0.20;0.00;;;14.00;99.90;;;;;;5070235;28;20044;-66
2023/08/21 05:43:16;;;;;;;0.35;0.10;;;14.30;99.90;;;;;;5065674;28;20070;-66
2023/08/21 05:45:42;;;;;;;0.30;0.17;;;14.70;99.90;;;;;;5066301;28;20098;-66
2023/08/21 05:48:08;;;;;;;0.28;0.10;;;15.00;99.90;;;;;;5067663;28;20045;-66
2023/08/21 05:50:36;;;;;;;0.52;0.20;;;15.40;99.90;;;;;;5065333;28;20063;-66
2023/08/21 05:53:03;;;;;;;0.00;0.00;;;15.70;99.90;;;;;;5066734;28;20047;-66
2023/08/21 05:55:29;;;;;;;0.10;0.10;;;16.10;99.90;;;;;;5068576;28;20033;-66
2023/08/21 05:57:55;;;;;;;0.15;0.10;;;16.40;99.90;;;;;;5066654;28;20041;-66
2023/08/21 06:00:20;;;;;;;0.08;0.08;;;16.50;99.90;;;;;;5070192;28;20040;-66
2023/08/21 06:02:46;;;;;;;0.10;0.10;;;16.40;99.90;;;;;;5065575;28;20496;-67
2023/08/21 06:05:12;;;;;;;0.30;0.10;;;16.40;99.90;;;;;;5060126;28;20102;-66
2023/08/21 06:07:39;;;;;;;0.55;0.10;;;16.40;99.90;;;;;;5062620;28;20044;-66
2023/08/21 06:10:07;;;;;;;0.10;0.00;;;16.40;99.90;;;;;;5066353;28;20041;-66
2023/08/21 06:12:32;;;;;;;0.38;0.10;;;16.50;99.90;;;;;;5060866;28;20036;-67
2023/08/21 06:14:58;;;;;;;0.45;0.17;;;16.50;99.90;;;;;;5064547;28;20074;-67
2023/08/21 06:17:24;;;;;;;0.20;0.20;;;16.60;99.90;;;;;;5064496;28;20033;-68
2023/08/21 06:19:49;;;;;;;0.63;0.10;;;16.70;99.90;;;;;;5068500;28;20037;-66
2023/08/21 06:22:15;;;;;;;0.57;0.13;;;16.80;99.90;;;;;;5069134;28;20052;-66
2023/08/21 06:24:41;;;;;;;0.43;0.22;;;16.90;99.90;;;;;;5069047;28;20036;-66
2023/08/21 06:27:07;;;;;;;0.30;0.00;;;17.00;99.90;;;;;;5069156;28;20503;-66
2023/08/21 06:29:33;;;;;;;0.85;0.20;;;17.00;99.90;;;;;;5068795;28;20049;-66
2023/08/21 06:31:58;;;;;;;0.20;0.20;;;17.10;99.90;;;;;;5069143;28;20036;-66
2023/08/21 06:34:24;;;;;;;0.32;0.10;;;17.20;99.90;;;;;;5064211;28;20028;-67
2023/08/21 06:36:50;;;;;;;0.43;0.20;;;17.30;99.90;;;;;;5065684;28;20028;-66
2023/08/21 06:39:15;;;;;;;0.00;0.00;;;17.40;99.90;;;;;;5065442;28;20291;-66
2023/08/21 06:41:41;;;;;;;0.38;0.15;;;17.50;99.90;;;;;;5069850;28;20407;-66
2023/08/21 06:44:07;;;;;;;0.25;0.10;;;17.50;99.90;;;;;;5066280;28;20040;-66
2023/08/21 06:46:33;;;;;;;0.40;0.10;;;17.60;99.90;;;;;;5066798;28;20036;-65
2023/08/21 06:48:58;;;;;;;0.20;0.10;;;17.70;99.90;;;;;;5048499;28;20501;-65
2023/08/21 06:51:24;;;;;;;0.17;0.10;;;17.90;99.90;;;;;;5068350;28;20093;-65
2023/08/21 06:53:50;;;;;;;0.43;0.10;;;18.10;99.90;;;;;;5065437;28;20059;-66
2023/08/21 06:56:15;;;;;;;0.13;0.10;;;18.20;99.90;;;;;;5067240;28;20051;-66
2023/08/21 06:58:41;;;;;;;0.35;0.10;;;18.30;99.90;;;;;;5068296;28;20040;-66
2023/08/21 07:01:07;;;;;;;0.13;0.13;;;18.50;99.90;;;;;;5069006;28;20056;-66
2023/08/21 07:03:33;;;;;;;0.52;0.22;;;18.60;99.90;;;;;;5067799;28;20036;-66
2023/08/21 07:06:00;;;;;;;0.20;0.20;;;18.70;99.90;;;;;;5067669;28;20032;-66
2023/08/21 07:08:26;;;;;;;0.32;0.20;;;18.80;99.90;;;;;;5067038;28;20052;-65
2023/08/21 07:10:53;;;;;;;0.10;0.05;;;18.90;99.90;;;;;;5068167;28;20119;-66
2023/08/21 07:13:19;;;;;;;0.10;0.00;;;19.10;99.90;;;;;;5069559;28;20045;-66
2023/08/21 07:15:46;;;;;;;0.10;0.10;;;19.20;99.90;;;;;;5068399;28;20040;-66
2023/08/21 07:18:11;;;;;;;1.25;0.10;;;19.30;99.90;;;;;;5063982;28;20040;-66
2023/08/21 07:20:37;;;;;;;0.55;0.00;;;19.50;99.90;;;;;;5066294;28;20052;-66
2023/08/21 07:23:03;;;;;;;0.35;0.05;;;19.60;99.90;;;;;;5068402;28;20093;-66
2023/08/21 07:25:29;;;;;;;0.10;0.00;;;19.80;99.90;;;;;;5067315;28;20052;-66
2023/08/21 07:27:55;;;;;;;0.00;0.00;;;19.90;99.90;;;;;;5065245;28;20048;-67
2023/08/21 07:30:22;;;;;;;1.15;0.10;;;20.10;99.90;;;;;;5069203;28;20527;-67
2023/08/21 07:32:48;;;;;;;0.00;0.00;;;20.20;99.90;;;;;;5064831;28;20398;-66
2023/08/21 07:35:14;;;;;;;0.30;0.10;;;20.20;99.90;;;;;;5065951;28;20370;-66
2023/08/21 07:37:44;;;;;;;0.00;0.00;;;20.30;99.90;;;;;;5067212;28;20125;-66
2023/08/21 07:40:09;;;;;;;0.20;0.10;;;20.40;99.90;;;;;;5067439;28;20041;-66
2023/08/21 07:42:35;;;;;;;0.10;0.00;;;20.50;99.90;;;;;;5050134;28;20098;-66
2023/08/21 07:45:01;;;;;;;0.63;0.10;;;20.70;99.90;;;;;;5068818;28;20040;-65
2023/08/21 07:47:27;;;;;;;0.10;0.10;;;20.80;99.90;;;;;;5067702;28;20474;-66
2023/08/21 07:49:53;;;;;;;0.57;0.10;;;20.80;99.90;;;;;;5066172;28;20053;-66
2023/08/21 07:52:19;;;;;;;0.10;0.03;;;21.00;99.90;;;;;;5069030;28;20037;-66
2023/08/21 07:54:45;;;;;;;0.05;0.00;;;21.10;99.90;;;;;;5067547;28;20052;-66
2023/08/21 07:57:12;;;;;;;1.65;0.17;;;21.20;99.90;;;;;;5067423;28;20037;-65
2023/08/21 07:59:37;;;;;;;0.88;0.10;;;21.30;99.90;;;;;;5069079;28;20044;-65
2023/08/21 08:02:04;;;;;;;0.50;0.20;;;21.50;99.90;;;;;;5066886;28;20409;-66
2023/08/21 08:04:30;;;;;;;0.25;0.15;;;21.50;99.90;;;;;;5065679;28;20484;-66
2023/08/21 08:06:56;;;;;;;0.10;0.00;;;21.60;99.90;;;;;;5068158;28;20036;-66
2023/08/21 08:09:22;;;;;;;0.17;0.10;;;21.70;99.90;;;;;;5066026;28;20036;-66
2023/08/21 08:11:47;;;;;;;0.15;0.00;;;21.80;99.90;;;;;;5068937;28;20098;-66
2023/08/21 08:14:13;;;;;;;0.10;0.00;;;21.90;99.90;;;;;;5068086;28;20079;-65
2023/08/21 08:16:39;;;;;;;0.63;0.10;;;22.00;99.90;;;;;;5067833;28;20055;-65
2023/08/21 08:19:05;;;;;;;0.77;0.22;;;22.10;99.90;;;;;;5065759;28;20036;-66
2023/08/21 08:21:30;;;;;;;0.10;0.10;;;22.20;99.90;;;;;;5050379;28;20467;-65
2023/08/21 08:23:57;;;;;;;0.95;0.13;;;22.30;99.90;;;;;;5066621;28;20049;-65
2023/08/21 08:26:22;;;;;;;0.55;0.10;;;22.50;99.90;;;;;;5068955;28;20040;-66
2023/08/21 08:28:48;;;;;;;1.38;0.10;;;22.60;99.90;;;;;;5066776;28;20032;-66
2023/08/21 08:31:16;;;;;;;0.28;0.10;;;22.70;99.90;;;;;;5067567;28;20041;-65
2023/08/21 08:33:41;;;;;;;0.00;0.00;;;22.90;99.90;;;;;;5068059;28;20123;-65
2023/08/21 08:36:07;;;;;;;0.00;0.00;;;23.10;99.90;;;;;;5070647;28;20123;-65
2023/08/21 08:38:33;;;;;;;0.10;0.00;;;23.20;99.90;;;;;;5070577;28;20041;-65
2023/08/21 08:41:02;;;;;;;0.10;0.00;;;23.40;99.90;;;;;;5072669;28;20540;-66
2023/08/21 08:43:29;;;;;;;0.30;0.10;;;23.50;99.90;;;;;;5070539;28;20074;-65
2023/08/21 08:45:58;;;;;;;0.08;0.08;;;23.60;99.90;;;;;;5071889;28;20047;-65
2023/08/21 08:48:24;;;;;;;1.08;0.10;;;23.70;99.90;;;;;;5070189;28;20446;-66
2023/08/21 08:50:51;;;;;;;0.20;0.10;;;23.80;99.90;;;;;;5072774;28;20103;-66
2023/08/21 08:53:18;;;;;;;0.30;0.00;;;23.80;99.90;;;;;;5070583;28;20497;-65
2023/08/21 08:55:48;;;;;;;0.22;0.20;;;23.90;99.90;;;;;;5068593;28;20123;-66
2023/08/21 08:58:14;;;;;;;0.52;0.20;;;24.10;99.90;;;;;;5070722;28;20124;-65
2023/08/21 09:00:39;;;;;;;0.13;0.00;;;24.30;99.90;;;;;;5071875;28;20131;-65
2023/08/21 09:03:05;;;;;;;0.30;0.10;;;24.50;99.90;;;;;;5069944;28;20512;-66
2023/08/21 09:05:32;;;;;;;0.25;0.10;;;24.60;99.90;;;;;;5067660;28;20037;-66
2023/08/21 09:08:14;;;;;;;0.10;0.00;;;24.80;99.90;;;;;;5072480;28;20041;-66
2023/08/21 09:10:41;;;;;;;0.10;0.00;;;25.00;99.90;;;;;;5071239;28;20040;-65
2023/08/21 09:13:15;;;;;;;0.10;0.00;;;25.30;99.90;;;;;;5071779;28;20036;-66
2023/08/21 09:15:43;;;;;;;0.00;0.00;;;25.60;99.90;;;;;;5069624;28;20498;-66
2023/08/21 09:18:10;;;;;;;0.00;0.00;;;26.00;99.90;;;;;;5068997;28;20044;-66
2023/08/21 09:20:37;;;;;;;0.00;0.00;;;26.40;99.90;;;;;;5070199;28;20033;-65
2023/08/21 09:23:04;;;;;;;0.75;0.10;;;26.70;99.90;;;;;;5072276;28;20087;-65
2023/08/21 09:25:54;;;;;;;0.10;0.00;;;27.10;99.90;;;;;;5070735;28;20052;-66
2023/08/21 09:28:21;;;;;;;0.00;0.00;;;27.40;99.90;;;;;;5070079;28;20500;-65
2023/08/21 09:30:52;;;;;;;0.10;0.00;;;27.60;99.90;;;;;;5070862;28;20128;-67
2023/08/21 09:33:20;;;;;;;0.10;0.05;;;27.80;99.90;;;;;;5071562;28;20560;-65
2023/08/21 09:35:46;;;;;;;0.40;0.10;;;27.90;99.90;;;;;;5069800;28;20360;-65
2023/08/21 09:38:11;;;;;;;0.55;0.03;;;28.10;99.90;;;;;;5069438;28;20037;-65
2023/08/21 09:40:42;;;;;;;0.17;0.00;;;28.40;99.90;;;;;;5068459;28;20043;-66
2023/08/21 09:43:11;;;;;;;0.65;0.35;;;28.40;99.90;;;;;;5070633;28;20047;-66
2023/08/21 09:45:38;;;;;;;0.00;0.00;;;28.40;99.90;;;;;;5068682;28;20082;-65
2023/08/21 09:48:04;;;;;;;0.10;0.00;;;28.20;99.90;;;;;;5069817;28;20045;-67
2023/08/21 09:50:30;;;;;;;0.00;0.00;;;28.20;99.90;;;;;;5071139;28;20039;-66
2023/08/21 09:52:57;;;;;;;0.00;0.00;;;28.10;99.90;;;;;;5069545;28;20449;-66
2023/08/21 09:55:26;;;;;;;0.10;0.00;;;28.00;98.20;;;;;;5068735;28;20037;-65
2023/08/21 09:57:58;;;;;;;0.10;0.00;;;27.90;99.90;;;;;;5071180;28;20032;-66
2023/08/21 10:00:28;;;;;;;0.00;0.00;;;27.80;95.00;;;;;;5069263;28;20036;-66
2023/08/21 10:02:58;;;;;;;0.90;0.00;;;27.70;92.40;;;;;;5070447;28;20080;-66
2023/08/21 10:05:25;;;;;;;0.00;0.00;;;27.70;97.80;;;;;;5070717;28;20042;-65
2023/08/21 10:07:52;;;;;;;0.13;0.00;;;27.80;99.90;;;;;;5068873;28;20041;-66
2023/08/21 10:10:18;;;;;;;0.08;0.00;;;28.10;99.90;;;;;;5069583;28;20043;-66
2023/08/21 10:12:43;;;;;;;0.00;0.00;;;28.20;99.90;;;;;;5071402;28;20541;-65
2023/08/21 10:15:10;;;;;;;0.47;0.00;;;28.40;99.90;;;;;;5065191;28;20127;-66
2023/08/21 10:17:36;;;;;;;0.68;0.20;;;28.70;99.90;;;;;;5066671;28;20152;-65
2023/08/21 10:20:07;;;;;;;0.00;0.00;;;28.70;99.90;;;;;;5069609;28;20052;-66
2023/08/21 10:22:43;;;;;;;0.28;0.20;;;28.90;99.90;;;;;;5068745;28;20044;-65
2023/08/21 10:25:17;;;;;;;0.32;0.00;;;29.00;99.90;;;;;;5070052;28;20097;-66
2023/08/21 10:27:43;;;;;;;0.15;0.00;;;29.10;97.50;;;;;;5066039;28;20036;-65
2023/08/21 10:30:15;;;;;;;0.00;0.00;;;29.30;99.90;;;;;;5065223;28;20072;-66
2023/08/21 10:32:47;;;;;;;0.22;0.00;;;29.40;97.60;;;;;;5066589;28;20048;-65
2023/08/21 10:35:19;;;;;;;0.00;0.00;;;29.50;91.70;;;;;;5066807;28;20044;-65
2023/08/21 10:38:15;;;;;;;0.10;0.00;;;29.50;98.60;;;;;;5070206;28;20403;-66
2023/08/21 10:41:02;;;;;;;0.08;0.00;;;29.60;75.50;;;;;;5066054;28;20120;-66
2023/08/21 10:43:45;;;;;;;0.00;0.00;;;29.50;95.10;;;;;;5065634;28;20132;-66
2023/08/21 10:46:11;;;;;;;0.10;0.00;;;29.50;90.00;;;;;;5069472;28;20051;-65
2023/08/21 10:48:38;;;;;;;0.00;0.00;;;29.50;96.20;;;;;;5069544;28;20290;-66
2023/08/21 10:51:07;;;;;;;0.32;0.10;;;29.60;95.60;;;;;;5067789;28;20032;-65
2023/08/21 10:53:34;;;;;;;0.10;0.00;;;29.70;93.00;;;;;;5048741;28;20041;-65
2023/08/21 10:56:04;;;;;;;0.57;0.00;;;29.80;90.60;;;;;;5067830;28;20048;-66
2023/08/21 10:58:43;;;;;;;0.10;0.00;;;29.90;91.40;;;;;;5067235;28;20059;-66
2023/08/21 11:01:09;;;;;;;1.10;0.10;;;30.10;91.80;;;;;;5068284;28;20048;-66
2023/08/21 11:03:39;;;;;;;0.73;0.13;;;30.10;93.20;;;;;;5068689;28;20036;-66
2023/08/21 11:06:10;;;;;;;0.00;0.00;;;30.20;95.20;;;;;;5067692;28;20119;-65
2023/08/21 11:08:36;;;;;;;0.17;0.00;;;30.20;82.60;;;;;;5065660;28;20048;-66
2023/08/21 11:11:03;;;;;;;0.00;0.00;;;30.10;83.40;;;;;;5069143;28;20108;-66
2023/08/21 11:13:29;;;;;;;0.10;0.00;;;30.00;77.20;;;;;;5067997;28;20358;-66
2023/08/21 11:16:03;;;;;;;0.00;0.00;;;29.80;85.80;;;;;;5068207;28;20040;-65
2023/08/21 11:18:33;;;;;;;0.25;0.03;;;29.50;79.30;;;;;;5068998;28;20080;-65
2023/08/21 11:21:10;;;;;;;0.00;0.00;;;28.90;73.80;;;;;;5066245;28;20119;-65
2023/08/21 11:23:38;;;;;;;0.57;0.00;;;28.70;78.20;;;;;;5068455;28;20044;-65
2023/08/21 11:26:04;;;;;;;0.52;0.05;;;28.80;84.80;;;;;;5066183;28;20055;-65
2023/08/21 11:28:30;;;;;;;0.13;0.00;;;28.80;76.70;;;;;;5068401;28;20408;-65
2023/08/21 11:30:57;;;;;;;0.00;0.00;;;29.00;73.30;;;;;;5066126;28;20028;-65
2023/08/21 11:33:23;;;;;;;0.20;0.00;;;29.40;84.50;;;;;;5068078;28;20038;-65
2023/08/21 11:35:50;;;;;;;0.65;0.00;;;29.90;83.40;;;;;;5069297;28;20471;-66
2023/08/21 11:38:19;;;;;;;0.00;0.00;;;29.80;68.90;;;;;;5069656;28;20040;-65
2023/08/21 11:40:52;;;;;;;0.00;0.00;;;29.10;64.20;;;;;;5061962;28;20120;-65
2023/08/21 11:43:18;;;;;;;;;;;28.60;68.50;;;;;;5068847;28;20045;-65
2023/08/21 11:45:45;;;;;;;2.30;0.00;;;28.30;72.40;;;;;;5067869;28;20283;-65
2023/08/21 11:48:11;;;;;;;0.82;0.10;;;28.40;67.40;;;;;;5066798;28;20135;-65
2023/08/21 11:50:37;;;;;;;0.10;0.00;;;28.50;71.50;;;;;;5065494;28;20115;-65
2023/08/21 11:53:03;;;;;;;0.55;0.00;;;28.70;76.60;;;;;;5066383;28;20370;-66
2023/08/21 11:55:29;;;;;;;0.00;0.00;;;28.90;78.80;;;;;;5066409;28;20457;-66
2023/08/21 11:57:55;;;;;;;0.10;0.00;;;29.10;79.00;;;;;;5066193;28;20036;-65
2023/08/21 12:00:29;;;;;;;0.22;0.00;;;29.50;77.50;;;;;;5067015;28;20039;-66
2023/08/21 12:03:00;;;;;;;0.63;0.00;;;29.90;71.30;;;;;;5069148;28;20366;-65
2023/08/21 12:05:27;;;;;;;0.00;0.00;;;30.30;72.80;;;;;;5065022;28;20095;-66
2023/08/21 12:07:54;;;;;;;0.00;0.00;;;30.60;72.90;;;;;;5068870;28;20040;-65
2023/08/21 12:10:27;;;;;;;0.00;0.00;;;30.60;70.50;;;;;;5066642;28;20036;-66
2023/08/21 12:12:53;;;;;;;0.25;0.05;;;30.00;63.30;;;;;;5068761;28;20047;-65
2023/08/21 12:15:20;;;;;;;0.55;0.10;;;29.80;68.60;;;;;;5067799;28;20052;-65
2023/08/21 12:17:45;;;;;;;0.13;0.10;;;29.80;67.80;;;;;;5069047;28;20098;-65
2023/08/21 12:20:11;;;;;;;0.00;0.00;;;29.90;67.60;;;;;;5067105;28;20032;-65
2023/08/21 12:22:40;;;;;;;0.28;0.00;;;30.20;71.10;;;;;;5066041;28;20033;-65
2023/08/21 12:25:07;;;;;;;0.25;0.05;;;30.10;66.10;;;;;;5067272;28;20099;-65
2023/08/21 12:27:33;;;;;;;0.03;0.00;;;29.90;70.10;;;;;;5067618;28;20131;-65
2023/08/21 12:29:58;;;;;;;0.10;0.00;;;30.20;70.50;;;;;;5068384;28;20071;-65
2023/08/21 12:32:24;;;;;;;0.10;0.00;;;30.70;67.00;;;;;;5068415;28;20119;-65
2023/08/21 12:34:50;;;;;;;0.00;0.00;;;31.20;69.80;;;;;;5067883;28;20033;-65
2023/08/21 12:37:15;;;;;;;0.35;0.00;;;31.70;71.80;;;;;;5069000;28;20119;-65
2023/08/21 12:39:41;;;;;;;0.00;0.00;;;32.00;71.30;;;;;;5067207;28;20044;-66
2023/08/21 12:42:07;;;;;;;1.35;0.05;;;32.20;69.60;;;;;;5066973;28;20426;-65
2023/08/21 12:44:34;;;;;;;0.85;0.00;;;32.20;68.20;;;;;;5067319;28;20119;-66
2023/08/21 12:46:59;;;;;;;0.52;0.20;;;31.90;67.20;;;;;;5067269;28;20426;-65